Terminal Aerodrome Forecast
Issued by NWS

Home | Current Version | Previous Version | Text Only | Print | Product List | Glossary On
Versions: 1 2 3 4 5 6 7 8 9 10 11 12 13
543
FTUS43 KMQT 252321
TAFCMX
TAF
KCMX 252321Z 2600/2624 27017G24KT P6SM BKN070
     FM260400 28013G20KT P6SM SCT060
     FM260600 29010KT P6SM SCT080
     FM260800 32007KT P6SM BKN050
     FM261000 34006KT P6SM BKN030
     FM261700 34006KT P6SM SCT035=

USA.gov is the U.S. government's official web portal to all federal, state and local government web resources and services.